OMRK/RKT METAR and TAF weather

Enter ICAO airport designator
Station Type Date Time Source
OMRK METAR 2022/01/26 09:00 UTC NOAA

OMRK 260900Z VRB04KT CAVOK 26/10 Q1017 A3004


Station Type Date Time Source
OMRK Decoded METAR 2022/01/26 09:00 UTC NOAA

Ras Al Khaimah International Airport, United Arab Emirates (OMRK) 25-37N 055-56E 31M
Jan 26, 2022 - 04:00 AM EST / 2022.01.26 0900 UTC
Wind: Variable at 5 MPH (4 KT):0
Visibility: greater than 7 mile(s):0
Temperature: 78 F (26 C)
Dew Point: 50 F (10 C)
Relative Humidity: 36%
Pressure (altimeter): 30.04 in. Hg (1017 hPa)
ob: OMRK 260900Z VRB04KT CAVOK 26/10 Q1017 A3004
cycle: 9

Station Type Date Time Source
OMRK TAF 2022/01/26 06:03 UTC NOAA

TAF OMRK 260500Z 2606/2712 20005KT 7000 NSC
BECMG 2608/2610 35010KT
BECMG 2615/2617 VRB02KT PROB30 2622/2706 3000 BR
BECMG 2709/2711 33010KT

Example: see airport list